Time;durP1;ratioP1;P1;durP2;ratioP2;P2;SDS_P1;SDS_P2;PMS_P1;PMS_P2;Temp;Humidity;BMP_temperature;BMP_pressure;BME280_temperature;BME280_humidity;BME280_pressure;Samples;Min_cycle;Max_cycle;Signal;HPM_P1;HPM_P2
2023/05/04 00:02:03;;;;;;;2.17;1.33;;;;;;;11.18;50.63;100962.84;10300183;28;20230;-60
2023/05/04 00:07:04;;;;;;;4.53;1.30;;;;;;;11.06;51.02;100957.75;10299591;28;20142;-59
2023/05/04 00:12:06;;;;;;;8.70;2.53;;;;;;;10.96;51.15;100954.38;10297973;28;20093;-60
2023/05/04 00:17:08;;;;;;;4.15;1.60;;;;;;;10.91;51.52;100954.84;10302020;28;20522;-60
2023/05/04 00:22:09;;;;;;;4.28;1.80;;;;;;;10.86;51.84;100950.94;10302707;28;20156;-60
2023/05/04 00:27:11;;;;;;;7.97;1.67;;;;;;;10.81;51.53;100950.63;10303305;28;20129;-59
2023/05/04 00:32:13;;;;;;;3.25;1.15;;;;;;;10.67;51.76;100949.38;10302708;28;20046;-60
2023/05/04 00:37:14;;;;;;;2.30;1.60;;;;;;;10.57;52.12;100944.13;10303616;28;20078;-60
2023/05/04 00:42:16;;;;;;;5.80;1.52;;;;;;;10.56;52.07;100937.06;10299460;28;20070;-59
2023/05/04 00:47:18;;;;;;;4.00;2.03;;;;;;;10.54;52.19;100940.94;10300177;28;20089;-59
2023/05/04 00:52:21;;;;;;;4.63;1.77;;;;;;;10.56;52.25;100941.59;10296184;28;20058;-59
2023/05/04 00:57:22;;;;;;;3.28;1.50;;;;;;;10.58;52.01;100932.38;10299233;28;20164;-59
2023/05/04 01:02:23;;;;;;;3.72;1.13;;;;;;;10.58;52.44;100928.84;10306353;28;20525;-59
2023/05/04 01:07:38;;;;;;;3.72;1.38;;;;;;;10.48;52.67;100927.13;10301547;28;20131;-59
2023/05/04 01:12:46;;;;;;;3.25;1.48;;;;;;;10.43;52.95;100924.09;10297669;28;20078;-59
2023/05/04 01:17:48;;;;;;;4.68;1.45;;;;;;;10.46;52.68;100917.53;10299535;28;20549;-59
2023/05/04 01:22:50;;;;;;;4.15;1.70;;;;;;;10.42;52.63;100913.50;10299740;28;20081;-60
2023/05/04 01:28:01;;;;;;;9.02;4.95;;;;;;;10.37;53.06;100908.59;10299933;28;20050;-59
2023/05/04 01:33:03;;;;;;;27.98;12.50;;;;;;;10.39;53.09;100911.13;10297471;28;20123;-59
2023/05/04 01:38:04;;;;;;;23.85;12.15;;;;;;;10.38;53.15;100918.34;10298624;28;20443;-59
2023/05/04 01:43:06;;;;;;;20.33;8.55;;;;;;;10.38;53.15;100920.19;10299741;28;20066;-59
2023/05/04 01:48:07;;;;;;;8.40;4.13;;;;;;;10.19;53.70;100918.53;10298716;28;20398;-59
2023/05/04 01:53:08;;;;;;;10.15;5.35;;;;;;;10.23;53.57;100912.69;10299353;28;20144;-60
2023/05/04 01:58:10;;;;;;;11.23;4.90;;;;;;;10.27;53.35;100910.53;10302493;28;20082;-59
2023/05/04 02:03:11;;;;;;;12.05;4.00;;;;;;;10.26;53.64;100911.53;10308153;28;20141;-59
2023/05/04 02:08:13;;;;;;;6.40;3.22;;;;;;;10.25;53.79;100915.25;10304802;28;20065;-59
2023/05/04 02:13:14;;;;;;;4.97;2.47;;;;;;;10.15;54.04;100917.16;10302593;28;20541;-59
2023/05/04 02:18:16;;;;;;;2.58;1.98;;;;;;;10.10;54.50;100920.34;10303353;28;20043;-60
2023/05/04 02:23:17;;;;;;;3.72;1.80;;;;;;;10.06;54.18;100909.06;10303094;28;20050;-58
2023/05/04 02:28:19;;;;;;;4.30;1.85;;;;;;;10.03;54.30;100914.78;10305870;28;20073;-58
2023/05/04 02:33:20;;;;;;;6.53;2.13;;;;;;;9.96;54.59;100915.56;10307396;28;20043;-58
2023/05/04 02:38:21;;;;;;;2.78;2.17;;;;;;;9.90;54.64;100917.88;10307950;28;20047;-58
2023/05/04 02:43:23;;;;;;;3.05;2.13;;;;;;;9.90;54.95;100915.19;10307386;28;20113;-58
2023/05/04 02:48:24;;;;;;;9.02;2.28;;;;;;;9.53;55.92;100926.16;10304008;28;20138;-59
2023/05/04 02:53:26;;;;;;;2.92;1.98;;;;;;;9.63;55.66;100918.84;10305034;28;20473;-59
2023/05/04 02:58:27;;;;;;;5.07;2.58;;;;;;;9.70;55.16;100911.84;10308088;28;20081;-58
2023/05/04 03:03:28;;;;;;;3.33;2.83;;;;;;;9.63;55.36;100913.47;10299009;28;20526;-59
2023/05/04 03:08:30;;;;;;;5.05;3.25;;;;;;;9.63;55.54;100905.41;10299041;28;20070;-58
2023/05/04 03:13:31;;;;;;;3.85;2.88;;;;;;;9.57;55.90;100906.03;10301542;28;20075;-58
2023/05/04 03:18:32;;;;;;;5.43;2.80;;;;;;;9.62;55.92;100903.75;10302097;28;20156;-58
2023/05/04 03:23:35;;;;;;;6.95;3.00;;;;;;;9.64;55.80;100896.38;10306710;28;20050;-58
2023/05/04 03:28:36;;;;;;;5.95;3.35;;;;;;;9.58;56.13;100905.06;10300253;28;20138;-59
2023/05/04 03:33:37;;;;;;;6.70;3.67;;;;;;;9.36;56.58;100910.91;10303092;28;20601;-58
2023/05/04 03:38:40;;;;;;;6.80;3.58;;;;;;;9.35;56.18;100896.66;10303242;28;20074;-59
2023/05/04 03:43:41;;;;;;;3.75;2.38;;;;;;;9.37;56.49;100891.13;10303432;28;20611;-59
2023/05/04 03:48:43;;;;;;;6.68;3.80;;;;;;;9.36;56.49;100900.16;10304076;28;20054;-60
2023/05/04 03:53:44;;;;;;;7.68;3.30;;;;;;;9.36;56.26;100895.66;10307007;28;20129;-67
2023/05/04 03:58:46;;;;;;;5.97;2.95;;;;;;;9.42;56.31;100888.81;10296496;28;20145;-66
2023/05/04 04:03:47;;;;;;;6.63;2.85;;;;;;;9.39;56.63;100898.00;10302479;28;20126;-66
2023/05/04 04:08:49;;;;;;;5.32;2.95;;;;;;;9.44;56.65;100890.34;10306232;28;20047;-66
2023/05/04 04:13:51;;;;;;;7.05;2.67;;;;;;;9.40;56.51;100890.81;10298098;28;20062;-66
2023/05/04 04:18:52;;;;;;;3.88;2.80;;;;;;;9.44;56.79;100887.69;10303021;28;20054;-67
2023/05/04 04:23:54;;;;;;;5.32;2.75;;;;;;;9.48;56.61;100896.25;10300719;28;20050;-65
2023/05/04 04:28:55;;;;;;;4.13;2.47;;;;;;;9.47;56.79;100886.50;10297888;28;20399;-66
2023/05/04 04:33:56;;;;;;;5.47;2.78;;;;;;;9.60;56.41;100889.66;10302827;28;20625;-66
2023/05/04 04:38:58;;;;;;;4.55;2.63;;;;;;;9.68;56.59;100881.66;10298971;28;20082;-66
2023/05/04 04:43:59;;;;;;;5.55;3.00;;;;;;;9.70;56.93;100894.91;10303211;28;20051;-66
2023/05/04 04:49:01;;;;;;;8.35;3.33;;;;;;;9.70;56.66;100894.91;10296961;28;20097;-67
2023/05/04 04:54:02;;;;;;;4.47;2.88;;;;;;;9.77;56.79;100905.84;10303328;28;20058;-66
2023/05/04 04:59:03;;;;;;;6.20;3.00;;;;;;;9.86;56.73;100905.75;10298042;28;20066;-66
2023/05/04 05:04:05;;;;;;;4.13;2.72;;;;;;;9.94;56.70;100910.34;10300270;28;20054;-66
2023/05/04 05:09:08;;;;;;;4.50;2.78;;;;;;;10.00;56.74;100903.50;10300417;28;20145;-65
2023/05/04 05:14:09;;;;;;;3.72;3.15;;;;;;;10.14;56.78;100910.97;10298358;28;20378;-65
2023/05/04 05:19:11;;;;;;;9.32;2.78;;;;;;;10.21;56.74;100913.84;10293074;28;20077;-66
2023/05/04 05:24:12;;;;;;;7.25;3.25;;;;;;;10.35;56.73;100907.94;10302802;28;20158;-66
2023/05/04 05:29:13;;;;;;;8.25;2.85;;;;;;;10.41;56.68;100912.66;10298015;28;20153;-66
2023/05/04 05:34:15;;;;;;;10.60;3.40;;;;;;;10.48;56.81;100908.28;10295503;28;20093;-67
2023/05/04 05:39:16;;;;;;;7.78;3.28;;;;;;;10.62;56.97;100901.47;10305303;28;20050;-68
2023/05/04 05:44:17;;;;;;;5.63;3.85;;;;;;;10.76;56.75;100913.44;10297904;28;20059;-67
2023/05/04 05:49:19;;;;;;;5.80;3.15;;;;;;;10.86;56.97;100914.16;10298990;28;20047;-67
2023/05/04 05:54:23;;;;;;;5.57;3.47;;;;;;;11.02;56.62;100910.66;10301493;28;20170;-74
2023/05/04 05:59:24;;;;;;;6.35;3.00;;;;;;;11.15;56.60;100903.97;10303499;28;20118;-73
2023/05/04 06:04:26;;;;;;;5.00;3.38;;;;;;;11.31;56.44;100898.59;10304009;28;20136;-73
2023/05/04 06:09:27;;;;;;;5.57;3.60;;;;;;;11.47;56.84;100895.06;10301013;28;21520;-73
2023/05/04 06:14:28;;;;;;;6.50;3.20;;;;;;;11.69;56.30;100893.56;10300346;28;20050;-73
2023/05/04 06:19:34;;;;;;;4.18;3.20;;;;;;;11.77;56.52;100889.97;10300755;28;20054;-73
2023/05/04 06:24:36;;;;;;;5.35;3.03;;;;;;;11.82;56.48;100898.41;10300613;28;20141;-74
2023/05/04 06:29:39;;;;;;;5.70;3.08;;;;;;;11.95;56.52;100903.28;10303577;28;20145;-73
2023/05/04 06:34:40;;;;;;;8.07;3.50;;;;;;;12.06;56.29;100905.63;10300114;28;20061;-73
2023/05/04 06:39:41;;;;;;;7.90;3.65;;;;;;;12.23;56.12;100906.44;10297972;28;20051;-73
2023/05/04 06:44:43;;;;;;;6.20;3.00;;;;;;;12.50;56.39;100897.91;10302851;28;20189;-73
2023/05/04 06:49:44;;;;;;;8.63;3.08;;;;;;;12.64;56.21;100895.50;10310290;28;20406;-73
2023/05/04 06:54:45;;;;;;;10.95;3.63;;;;;;;12.82;55.70;100900.63;10312466;28;20141;-73
2023/05/04 06:59:47;;;;;;;9.75;2.67;;;;;;;12.98;55.12;100895.13;10304180;28;20047;-73
2023/05/04 07:04:48;;;;;;;4.70;2.60;;;;;;;13.15;54.67;100898.56;10306772;28;20070;-72
2023/05/04 07:09:50;;;;;;;7.57;3.95;;;;;;;13.34;54.34;100899.97;10303050;28;20113;-73
2023/05/04 07:14:51;;;;;;;8.88;3.05;;;;;;;13.58;53.78;100887.28;10313257;28;20145;-74
2023/05/04 07:19:52;;;;;;;9.25;3.50;;;;;;;13.80;52.89;100886.41;10303934;28;20803;-71
2023/05/04 07:24:56;;;;;;;6.40;2.53;;;;;;;14.09;52.27;100882.88;10303661;28;20547;-74
2023/05/04 07:29:58;;;;;;;8.25;2.88;;;;;;;14.40;52.20;100873.75;10309272;28;20623;-73
2023/05/04 07:34:59;;;;;;;8.45;2.78;;;;;;;14.63;51.54;100867.38;10305710;28;20058;-69
2023/05/04 07:40:04;;;;;;;4.95;3.53;;;;;;;14.76;51.34;100861.31;10305785;28;20737;-70
2023/05/04 07:45:07;;;;;;;5.97;2.97;;;;;;;14.97;51.13;100855.06;10301476;28;20058;-70
2023/05/04 07:50:09;;;;;;;4.32;3.03;;;;;;;15.18;50.52;100849.63;10305143;28;20497;-71
2023/05/04 07:55:10;;;;;;;6.20;3.47;;;;;;;15.42;50.03;100861.97;10298413;28;20059;-70
2023/05/04 08:00:13;;;;;;;4.05;2.92;;;;;;;15.70;49.31;100857.56;10304023;28;20141;-70
2023/05/04 08:05:14;;;;;;;7.60;3.42;;;;;;;15.92;48.63;100851.09;10306140;28;20074;-71
2023/05/04 08:10:16;;;;;;;4.07;3.08;;;;;;;16.21;48.13;100851.88;10307125;28;20066;-69
2023/05/04 08:15:17;;;;;;;4.03;3.72;;;;;;;16.53;47.61;100841.38;10307109;28;20348;-71
2023/05/04 08:20:19;;;;;;;7.68;3.15;;;;;;;16.83;47.17;100842.78;10302406;28;20066;-69
2023/05/04 08:25:23;;;;;;;6.47;4.18;;;;;;;16.98;47.15;100839.03;10300737;28;20047;-70
2023/05/04 08:30:25;;;;;;;9.15;3.65;;;;;;;17.27;46.55;100831.56;10307228;28;20442;-71
2023/05/04 08:35:27;;;;;;;9.23;3.53;;;;;;;17.39;46.43;100835.31;10300943;28;20395;-71
2023/05/04 08:40:29;;;;;;;7.95;3.95;;;;;;;17.58;46.04;100825.50;10301116;28;20470;-71
2023/05/04 08:45:31;;;;;;;4.32;3.55;;;;;;;17.79;45.70;100817.09;10300950;28;20128;-71
2023/05/04 08:50:35;;;;;;;6.13;3.65;;;;;;;18.04;45.56;100824.59;10304696;28;20113;-70
2023/05/04 08:55:38;;;;;;;5.63;3.53;;;;;;;18.15;45.19;100812.22;10296063;28;20141;-70
2023/05/04 09:00:42;;;;;;;6.97;3.28;;;;;;;18.38;44.84;100798.94;10304117;28;20050;-71
2023/05/04 09:05:45;;;;;;;8.30;4.22;;;;;;;18.61;44.48;100792.09;10310933;28;20162;-72
2023/05/04 09:10:46;;;;;;;8.45;3.55;;;;;;;18.69;44.34;100797.28;10300958;28;20474;-72
2023/05/04 09:15:55;;;;;;;10.68;4.05;;;;;;;18.79;44.03;100792.22;10305603;28;20391;-72
2023/05/04 09:20:57;;;;;;;5.88;3.88;;;;;;;18.90;43.99;100782.53;10298596;28;20085;-70
2023/05/04 09:25:59;;;;;;;6.38;3.60;;;;;;;19.13;43.69;100776.47;10307159;28;20398;-71
2023/05/04 09:31:01;;;;;;;5.78;4.03;;;;;;;19.27;43.20;100779.09;10303588;28;20098;-69
2023/05/04 09:36:17;;;;;;;6.22;3.47;;;;;;;19.41;43.03;100761.53;10301715;28;20051;-71
2023/05/04 09:41:30;;;;;;;7.95;4.00;;;;;;;19.73;42.82;100761.50;10305818;28;20192;-72
2023/05/04 09:46:31;;;;;;;6.65;3.38;;;;;;;20.04;42.27;100765.13;10297922;28;20129;-59
2023/05/04 09:51:36;;;;;;;5.00;3.50;;;;;;;20.24;41.48;100756.66;10299863;28;20042;-60
2023/05/04 09:56:50;;;;;;;5.60;3.28;;;;;;;20.59;40.77;100738.56;10297167;28;20089;-60
2023/05/04 10:01:52;;;;;;;6.82;3.70;;;;;;;20.81;40.17;100748.94;10295717;28;20137;-66
2023/05/04 10:06:54;;;;;;;5.75;4.18;;;;;;;20.92;39.61;100737.22;10312905;28;20054;-67
2023/05/04 10:11:59;;;;;;;5.03;2.97;;;;;;;21.35;39.55;100727.03;10318940;28;20055;-67
2023/05/04 10:17:33;;;;;;;7.47;3.20;;;;;;;21.69;39.01;100721.78;10315739;28;20054;-67
2023/05/04 10:22:54;;;;;;;4.15;2.50;;;;;;;22.06;37.90;100722.28;10316969;28;20058;-67
2023/05/04 10:28:07;;;;;;;5.72;2.70;;;;;;;22.73;36.88;100713.44;10319320;28;20059;-66
2023/05/04 10:33:09;;;;;;;4.00;2.60;;;;;;;23.14;35.70;100705.91;10323118;28;20047;-67
2023/05/04 10:38:11;;;;;;;4.57;1.85;;;;;;;23.50;34.66;100698.19;10321154;28;20421;-66
2023/05/04 10:43:22;;;;;;;4.03;2.03;;;;;;;23.90;34.35;100691.59;10318413;28;20046;-67
2023/05/04 10:48:34;;;;;;;3.78;1.83;;;;;;;24.32;33.11;100682.69;10319134;28;20046;-66
2023/05/04 10:53:36;;;;;;;3.28;1.98;;;;;;;24.47;32.57;100673.78;10310910;28;20047;-68
2023/05/04 10:58:37;;;;;;;2.33;1.88;;;;;;;24.93;32.47;100662.34;10301805;28;20561;-67
2023/05/04 11:03:39;;;;;;;2.53;2.30;;;;;;;25.19;31.74;100649.59;10306678;28;20097;-67
2023/05/04 11:08:42;;;;;;;4.10;2.33;;;;;;;25.50;31.36;100633.28;10305492;28;20141;-68
2023/05/04 11:13:47;;;;;;;4.90;2.47;;;;;;;25.83;31.30;100620.16;10305339;28;20105;-68
2023/05/04 11:18:48;;;;;;;4.63;2.33;;;;;;;25.94;30.83;100613.63;10304651;28;20070;-69
2023/05/04 11:23:57;;;;;;;3.42;1.75;;;;;;;25.88;29.53;100604.47;10306729;28;20046;-68
2023/05/04 11:28:58;;;;;;;3.38;1.40;;;;;;;26.07;29.36;100580.03;10305451;28;20070;-68
2023/05/04 11:34:00;;;;;;;5.20;2.22;;;;;;;26.28;28.73;100583.63;10304273;28;20050;-68
2023/05/04 11:39:04;;;;;;;8.07;1.30;;;;;;;26.58;28.60;100583.88;10301559;28;20126;-68
2023/05/04 11:44:06;;;;;;;2.05;1.50;;;;;;;26.57;28.16;100574.78;10306129;28;20690;-68
2023/05/04 11:49:08;;;;;;;1.90;1.70;;;;;;;26.88;27.64;100574.78;10306662;28;20078;-68
2023/05/04 11:54:18;;;;;;;3.75;2.17;;;;;;;27.12;27.03;100563.13;10305928;28;20059;-67
2023/05/04 11:59:20;;;;;;;1.33;1.00;;;;;;;27.52;26.55;100553.03;10303534;28;20070;-68
2023/05/04 12:04:21;;;;;;;4.45;1.63;;;;;;;27.89;26.52;100560.84;10306869;28;20129;-67
2023/05/04 12:09:23;;;;;;;2.80;1.05;;;;;;;28.22;26.07;100547.28;10301364;28;20405;-68
2023/05/04 12:14:27;;;;;;;7.10;1.02;;;;;;;28.60;24.79;100542.03;10300329;28;20050;-67
2023/05/04 12:19:30;;;;;;;1.10;0.80;;;;;;;28.92;24.32;100548.88;10301706;28;20046;-62
2023/05/04 12:24:31;;;;;;;3.85;0.98;;;;;;;29.25;24.37;100544.34;10303641;28;20170;-61
2023/05/04 12:29:33;;;;;;;6.60;1.35;;;;;;;29.31;23.47;100542.34;10299976;28;20042;-62
2023/05/04 12:34:35;;;;;;;3.72;1.00;;;;;;;29.31;22.89;100521.00;10305248;28;20153;-64
2023/05/04 12:39:37;;;;;;;3.58;0.93;;;;;;;29.38;23.04;100518.69;10308108;28;20129;-62
2023/05/04 12:44:38;;;;;;;4.07;1.20;;;;;;;29.66;22.65;100510.53;10306253;28;20430;-64
2023/05/04 12:49:39;;;;;;;1.20;0.82;;;;;;;29.57;22.21;100521.47;10303283;28;20054;-63
2023/05/04 12:54:41;;;;;;;2.20;0.90;;;;;;;29.80;21.99;100517.00;10310022;28;20073;-63
2023/05/04 12:59:42;;;;;;;3.13;1.02;;;;;;;30.12;22.00;100507.06;10301527;28;20047;-63
2023/05/04 13:04:44;;;;;;;4.00;0.90;;;;;;;30.39;21.99;100497.16;10300537;28;20121;-63
2023/05/04 13:09:45;;;;;;;9.90;0.90;;;;;;;30.54;21.21;100480.25;10301940;28;20175;-64
2023/05/04 13:14:47;;;;;;;3.28;1.00;;;;;;;30.69;21.12;100478.28;10307836;28;20117;-65
2023/05/04 13:19:48;;;;;;;3.42;1.00;;;;;;;30.86;21.02;100470.16;10318180;28;20045;-64
2023/05/04 13:24:50;;;;;;;2.88;1.02;;;;;;;30.76;20.71;100465.66;10299857;28;20042;-63
2023/05/04 13:29:51;;;;;;;4.55;1.20;;;;;;;31.25;20.24;100449.34;10299440;28;20096;-62
2023/05/04 13:34:52;;;;;;;1.45;0.80;;;;;;;31.49;20.67;100442.72;10298625;28;20506;-64
2023/05/04 13:39:55;;;;;;;2.60;1.08;;;;;;;31.40;20.75;100450.97;10305773;28;20121;-64
2023/05/04 13:44:56;;;;;;;4.10;0.80;;;;;;;31.60;20.50;100438.56;10301883;28;20524;-64
2023/05/04 13:49:57;;;;;;;6.75;1.30;;;;;;;31.87;20.34;100423.69;10302350;28;20074;-65
2023/05/04 13:54:59;;;;;;;1.77;0.75;;;;;;;32.60;19.90;100426.22;10303609;28;20456;-64
2023/05/04 14:00:01;;;;;;;3.05;0.70;;;;;;;33.23;19.22;100412.94;10316119;28;20042;-65
2023/05/04 14:05:08;;;;;;;2.42;0.70;;;;;;;34.46;18.61;100405.16;10312484;28;20655;-66
2023/05/04 14:10:11;;;;;;;2.10;0.90;;;;;;;35.11;17.69;100395.41;10308575;28;20043;-66
2023/05/04 14:15:15;;;;;;;4.25;0.82;;;;;;;35.53;17.01;100388.97;10313775;28;20073;-63
2023/05/04 14:20:17;;;;;;;0.77;0.73;;;;;;;36.13;16.65;100381.91;10310788;28;20038;-65
2023/05/04 14:25:20;;;;;;;1.52;1.40;;;;;;;35.81;16.77;100357.63;10326221;28;20065;-63
2023/05/04 14:30:21;;;;;;;3.55;0.73;;;;;;;35.68;16.62;100354.78;10304251;28;20063;-65
2023/05/04 14:35:23;;;;;;;1.38;0.60;;;;;;;34.16;17.74;100357.69;10305904;28;20664;-65
2023/05/04 14:40:24;;;;;;;3.63;0.90;;;;;;;33.25;17.98;100351.31;10307090;28;20074;-64
2023/05/04 14:45:26;;;;;;;1.80;0.82;;;;;;;33.11;18.28;100340.34;10309056;28;20075;-66
2023/05/04 14:50:27;;;;;;;5.00;0.77;;;;;;;33.53;18.23;100340.59;10302260;28;20145;-65
2023/05/04 14:55:29;;;;;;;2.65;0.70;;;;;;;33.90;18.47;100325.09;10302399;28;20054;-65
2023/05/04 15:00:31;;;;;;;2.85;1.02;;;;;;;34.33;17.69;100320.50;10298436;28;20066;-65
2023/05/04 15:05:32;;;;;;;3.00;0.80;;;;;;;34.25;17.24;100310.22;10303897;28;20109;-66
2023/05/04 15:10:34;;;;;;;2.55;0.80;;;;;;;33.57;18.00;100299.75;10306741;28;20050;-62
2023/05/04 15:15:38;;;;;;;5.07;1.05;;;;;;;32.95;18.61;100296.22;10304569;28;20066;-66
2023/05/04 15:20:40;;;;;;;3.90;0.73;;;;;;;32.28;18.74;100294.66;10305308;28;20524;-62
2023/05/04 15:25:41;;;;;;;2.90;0.77;;;;;;;31.78;19.15;100298.53;10305720;28;20078;-64
2023/05/04 15:30:42;;;;;;;2.30;0.60;;;;;;;31.55;19.31;100306.09;10301724;28;20141;-62
2023/05/04 15:35:44;;;;;;;2.75;0.60;;;;;;;31.31;19.25;100322.28;10308543;28;20078;-62
2023/05/04 15:40:45;;;;;;;2.92;0.70;;;;;;;30.99;19.39;100313.88;10301750;28;20182;-64
2023/05/04 15:45:47;;;;;;;1.85;0.77;;;;;;;30.97;20.16;100310.59;10305965;28;20051;-64
2023/05/04 15:50:48;;;;;;;3.80;1.02;;;;;;;31.13;20.35;100304.66;10305304;28;20082;-65
2023/05/04 15:55:50;;;;;;;4.13;1.27;;;;;;;31.09;20.12;100298.09;10299544;28;20513;-63
2023/05/04 16:00:51;;;;;;;3.35;0.80;;;;;;;31.05;20.08;100303.47;10295159;28;20054;-63
2023/05/04 16:05:52;;;;;;;1.85;0.73;;;;;;;30.79;20.33;100290.16;10295516;28;20648;-63
2023/05/04 16:10:56;;;;;;;2.90;0.80;;;;;;;30.94;20.67;100279.84;10299861;28;20137;-62
2023/05/04 16:15:57;;;;;;;4.20;0.80;;;;;;;31.34;20.37;100269.69;10302472;28;20046;-62
2023/05/04 16:20:58;;;;;;;1.92;0.80;;;;;;;31.59;20.38;100264.59;10295718;28;20133;-61
2023/05/04 16:26:00;;;;;;;2.80;0.80;;;;;;;31.60;19.99;100258.72;10303924;28;20054;-63
2023/05/04 16:31:04;;;;;;;1.58;0.70;;;;;;;31.55;20.56;100242.19;10298541;28;20093;-61
2023/05/04 16:36:06;;;;;;;4.10;0.80;;;;;;;31.43;20.67;100239.16;10303241;28;20118;-62
2023/05/04 16:41:08;;;;;;;46.45;2.55;;;;;;;31.64;19.95;100231.13;10301985;28;20059;-60
2023/05/04 16:46:09;;;;;;;2.00;0.70;;;;;;;31.40;20.47;100229.50;10290999;28;20078;-62
2023/05/04 16:51:12;;;;;;;4.13;0.90;;;;;;;31.31;20.24;100248.09;10299532;28;20051;-63
2023/05/04 16:56:18;;;;;;;3.65;0.70;;;;;;;31.30;20.25;100240.06;10299301;28;20051;-63
2023/05/04 17:01:19;;;;;;;3.58;0.70;;;;;;;31.35;20.53;100242.72;10305049;28;20648;-65
2023/05/04 17:06:21;;;;;;;2.10;0.60;;;;;;;31.01;20.67;100242.19;10301985;28;20051;-63
2023/05/04 17:11:22;;;;;;;3.78;0.80;;;;;;;30.63;20.64;100242.53;10301997;28;20090;-63
2023/05/04 17:16:24;;;;;;;0.70;0.60;;;;;;;30.09;21.47;100229.56;10298834;28;20129;-63
2023/05/04 17:21:25;;;;;;;1.25;0.90;;;;;;;29.90;21.75;100213.88;10299865;28;20058;-64
2023/05/04 17:26:27;;;;;;;2.45;0.90;;;;;;;29.56;22.01;100215.09;10305674;28;20097;-64
2023/05/04 17:31:28;;;;;;;1.85;0.80;;;;;;;29.33;21.90;100214.13;10299371;28;21119;-64
2023/05/04 17:36:31;;;;;;;3.53;1.35;;;;;;;29.19;22.26;100221.59;10291298;28;20506;-62
2023/05/04 17:41:32;;;;;;;3.45;0.80;;;;;;;28.77;22.67;100218.66;10302381;28;20081;-64
2023/05/04 17:46:34;;;;;;;6.28;0.95;;;;;;;28.30;22.95;100214.91;10300409;28;20541;-69
2023/05/04 17:51:35;;;;;;;1.42;0.60;;;;;;;28.10;23.33;100215.97;10300438;28;20069;-68
2023/05/04 17:56:37;;;;;;;1.27;0.73;;;;;;;27.81;23.78;100230.69;10301776;28;20254;-67
2023/05/04 18:01:38;;;;;;;2.97;0.82;;;;;;;27.35;24.07;100222.94;10297242;28;20581;-68
2023/05/04 18:06:39;;;;;;;1.55;0.95;;;;;;;26.96;24.50;100245.03;10299096;28;20046;-67
2023/05/04 18:11:41;;;;;;;1.20;0.70;;;;;;;26.57;25.18;100243.06;10296032;28;20079;-67
2023/05/04 18:16:42;;;;;;;2.55;1.30;;;;;;;26.23;25.38;100241.88;10303580;28;20556;-67
2023/05/04 18:21:43;;;;;;;5.53;2.63;;;;;;;25.92;25.84;100238.44;10296523;28;20062;-66
2023/05/04 18:26:45;;;;;;;1.67;0.93;;;;;;;25.57;26.06;100244.84;10289500;28;20053;-67
2023/05/04 18:31:46;;;;;;;17.35;10.55;;;;;;;25.27;26.75;100243.78;10301401;28;20055;-67
2023/05/04 18:36:48;;;;;;;14.32;7.93;;;;;;;24.96;27.20;100252.03;10301940;28;20050;-67
2023/05/04 18:41:50;;;;;;;8.10;5.97;;;;;;;24.69;27.45;100253.09;10295686;28;20065;-67
2023/05/04 18:46:52;;;;;;;6.88;4.07;;;;;;;24.40;28.94;100249.16;10289204;28;20101;-67
2023/05/04 18:51:54;;;;;;;3.67;1.50;;;;;;;24.12;29.29;100262.22;10300568;28;20102;-65
2023/05/04 18:56:57;;;;;;;5.70;1.58;;;;;;;23.78;30.40;100273.59;10308885;28;20417;-67
2023/05/04 19:02:00;;;;;;;3.80;1.67;;;;;;;23.48;30.67;100279.66;10316340;28;20498;-67
2023/05/04 19:07:02;;;;;;;6.72;1.95;;;;;;;23.09;31.26;100288.97;10311434;28;20043;-68
2023/05/04 19:12:03;;;;;;;5.55;1.55;;;;;;;22.78;32.36;100291.38;10316191;28;20077;-70
2023/05/04 19:17:05;;;;;;;5.22;1.42;;;;;;;22.50;33.05;100303.44;10316084;28;20042;-69
2023/05/04 19:22:07;;;;;;;5.20;1.80;;;;;;;22.09;33.80;100297.41;10355757;28;20105;-63
2023/05/04 19:27:09;;;;;;;9.23;1.98;;;;;;;21.76;34.84;100299.16;10300230;28;20046;-63
2023/05/04 19:32:10;;;;;;;4.68;2.42;;;;;;;21.54;35.85;100310.06;10316006;28;20062;-64
2023/05/04 19:37:25;;;;;;;7.13;1.67;;;;;;;21.25;36.80;100311.16;10309159;28;20046;-63
2023/05/04 19:42:27;;;;;;;6.43;1.40;;;;;;;20.94;37.20;100322.41;10317525;28;20054;-63
2023/05/04 19:47:28;;;;;;;3.95;1.80;;;;;;;20.64;37.86;100317.19;10316216;28;20128;-63
2023/05/04 19:52:30;;;;;;;5.53;1.92;;;;;;;20.36;37.96;100318.78;10322513;28;24660;-63
2023/05/04 19:57:31;;;;;;;3.35;1.70;;;;;;;20.10;38.56;100316.59;10322538;28;20065;-62
2023/05/04 20:02:34;;;;;;;3.25;1.63;;;;;;;19.97;39.20;100320.41;10313621;28;20120;-62
2023/05/04 20:07:36;;;;;;;3.58;1.90;;;;;;;19.79;39.54;100318.66;10327928;28;20368;-63
2023/05/04 20:12:37;;;;;;;3.00;1.50;;;;;;;19.67;39.98;100315.03;10320304;28;20133;-63
2023/05/04 20:17:39;;;;;;;7.70;1.92;;;;;;;19.54;40.37;100314.22;10315521;28;20060;-63
2023/05/04 20:22:40;;;;;;;5.68;1.80;;;;;;;19.36;40.90;100322.50;10322085;28;20082;-63
2023/05/04 20:27:42;;;;;;;5.30;1.90;;;;;;;19.19;41.54;100314.16;10317158;28;20117;-63
2023/05/04 20:32:44;;;;;;;3.80;1.80;;;;;;;19.03;41.91;100319.22;10329734;28;20070;-62
2023/05/04 20:37:46;;;;;;;3.30;2.00;;;;;;;18.68;42.92;100326.41;10327920;28;20050;-65
2023/05/04 20:42:49;;;;;;;5.07;1.98;;;;;;;18.66;43.11;100321.19;10284269;28;20078;-64
2023/05/04 20:47:50;;;;;;;2.72;1.73;;;;;;;18.61;43.39;100332.75;10310414;28;20086;-64
2023/05/04 20:52:54;;;;;;;3.03;2.17;;;;;;;18.50;43.41;100328.09;10303863;28;20492;-64
2023/05/04 20:57:56;;;;;;;3.45;1.83;;;;;;;18.16;44.50;100327.66;10300216;28;20046;-64
2023/05/04 21:02:57;;;;;;;3.80;1.73;;;;;;;18.16;44.32;100318.66;10298749;28;20126;-64
2023/05/04 21:07:59;;;;;;;4.65;1.85;;;;;;;17.97;44.66;100310.50;10295137;28;20090;-64
2023/05/04 21:13:01;;;;;;;4.47;2.28;;;;;;;17.82;45.42;100302.69;10298150;28;20061;-62
2023/05/04 21:18:03;;;;;;;4.03;2.40;;;;;;;17.74;45.46;100292.09;10300598;28;20061;-63
2023/05/04 21:23:04;;;;;;;3.08;1.98;;;;;;;17.37;45.92;100294.72;10305497;28;20401;-63
2023/05/04 21:28:06;;;;;;;2.55;1.90;;;;;;;17.15;46.68;100302.44;10300885;28;20101;-63
2023/05/04 21:33:07;;;;;;;4.65;2.63;;;;;;;17.04;47.23;100297.69;10297303;28;20074;-63
2023/05/04 21:38:08;;;;;;;6.32;1.95;;;;;;;16.97;47.25;100297.75;10293495;28;20090;-63
2023/05/04 21:43:10;;;;;;;5.18;2.78;;;;;;;16.79;47.59;100292.22;10299848;28;20081;-63
2023/05/04 21:48:11;;;;;;;3.53;2.13;;;;;;;16.71;47.80;100296.03;10294839;28;20082;-63
2023/05/04 21:53:12;;;;;;;3.38;2.20;;;;;;;16.73;47.58;100306.66;10297473;28;21303;-63
2023/05/04 21:58:16;;;;;;;2.63;1.77;;;;;;;16.63;47.87;100299.81;10305734;28;20082;-61
2023/05/04 22:03:17;;;;;;;5.50;2.28;;;;;;;16.56;48.18;100303.63;10300781;28;20156;-63
2023/05/04 22:08:22;;;;;;;3.08;2.17;;;;;;;16.53;48.60;100293.19;10303174;28;20144;-65
2023/05/04 22:13:24;;;;;;;5.03;2.75;;;;;;;16.45;48.79;100295.13;10299939;28;20082;-63
2023/05/04 22:18:26;;;;;;;4.18;2.20;;;;;;;16.35;49.21;100285.75;10306067;28;20054;-65
2023/05/04 22:23:27;;;;;;;3.97;2.25;;;;;;;16.28;49.11;100293.09;10311525;28;20067;-62
2023/05/04 22:28:29;;;;;;;4.90;2.80;;;;;;;15.98;49.82;100291.75;10303871;28;20145;-63
2023/05/04 23:17:20;;;;;;;7.25;2.10;;;;;;;15.70;49.99;100301.97;8629011;28;20038;-63
2023/05/04 23:22:22;;;;;;;3.45;1.85;;;;;;;15.61;50.42;100287.81;10324747;28;20050;-62
2023/05/04 23:27:23;;;;;;;4.32;2.45;;;;;;;15.63;50.30;100289.28;10336466;28;20050;-63
2023/05/04 23:32:25;;;;;;;5.03;1.65;;;;;;;15.72;50.28;100289.03;10330336;28;20050;-62
2023/05/04 23:37:30;;;;;;;3.72;1.75;;;;;;;15.71;50.47;100282.81;10328687;28;20053;-62
2023/05/04 23:42:31;;;;;;;4.05;1.58;;;;;;;15.70;50.40;100280.28;10320592;28;20073;-62
2023/05/04 23:47:33;;;;;;;5.80;2.22;;;;;;;15.64;50.66;100277.41;10326676;28;20062;-62
2023/05/04 23:52:34;;;;;;;3.25;1.80;;;;;;;15.51;50.99;100280.13;10334821;28;20061;-62